WetterOnline ( http://www.wetteronline.de )

Wetter aktuell Mannheim

Aktuelles Wetter: Mannheim (100m)

6-stündlich | Neueste Meldungen
Ortszeit Temperatur Wetter
Sa, 21.04. 20:00 24.1° C wolkig
Sa, 21.04. 14:00 25.9° C wolkenlos
Sa, 21.04. 8:00 12.5° C wolkenlos
Sa, 21.04. 2:00 10.8° C wolkig
Fr, 20.04. 20:00 21.4° C leicht bewölkt
Fr, 20.04. 14:00 25.1° C wolkig
Fr, 20.04. 8:00 12.5° C bewölkt
Fr, 20.04. 2:00 10.2° C fast wolkenlos
Ortszeit Temperatur Wetter
Sa, 21.04. 21:00 18.6° C wolkig
Sa, 21.04. 20:50 18.6° C wolkig
Sa, 21.04. 20:40 20.0° C wolkig
Sa, 21.04. 20:30 22.5° C wolkig
Sa, 21.04. 20:20 22.5° C wolkig
Sa, 21.04. 20:10 22.6° C wolkig
Sa, 21.04. 20:00 24.1° C wolkig
Sa, 21.04. 19:30 24.7° C wolkig
Sa, 21.04. 19:00 25.6° C leicht bewölkt
Sa, 21.04. 18:30 26.3° C wolkig
Sa, 21.04. 18:00 26.4° C leicht bewölkt
Ortszeit Relative Feuchte Sichtweite
Sa, 21.04. 20:00 43% 35 km
Sa, 21.04. 14:00 44% 20 km
Sa, 21.04. 8:00 86% 11 km
Sa, 21.04. 2:00 97% 13 km
Fr, 20.04. 20:00 62% 50 km
Fr, 20.04. 14:00 40% 18 km
Fr, 20.04. 8:00 73% 25 km
Fr, 20.04. 2:00 83% 45 km
Ortszeit Relative Feuchte Sichtweite
Sa, 21.04. 21:00 68% 23 km
Sa, 21.04. 20:50 68% -
Sa, 21.04. 20:40 60% -
Sa, 21.04. 20:30 51% 24 km
Sa, 21.04. 20:20 51% -
Sa, 21.04. 20:10 50% -
Sa, 21.04. 20:00 43% 35 km
Sa, 21.04. 19:30 40% 35 km
Sa, 21.04. 19:00 43% 30 km
Sa, 21.04. 18:30 41% 30 km
Sa, 21.04. 18:00 39% 35 km
Ortszeit Niederschlagsmenge Niederschlagsart
Sa, 21.04. 20:00 0.0 l/m2 in 12 Std. -
Sa, 21.04. 14:00 0.0 l/m2 in 6 Std. -
Sa, 21.04. 8:00 0.0 l/m2 in 12 Std. -
Sa, 21.04. 2:00 0.0 l/m2 in 6 Std. -
Fr, 20.04. 20:00 0.0 l/m2 in 12 Std. -
Fr, 20.04. 14:00 0.0 l/m2 in 6 Std. -
Fr, 20.04. 8:00 0.0 l/m2 in 12 Std. -
Fr, 20.04. 2:00 0.0 l/m2 in 6 Std. -
Ortszeit Niederschlagsmenge Niederschlagsart
Sa, 21.04. 21:00 0.0 l/m2 in 1 Std. -
Sa, 21.04. 20:50 keine Meldung -
Sa, 21.04. 20:40 keine Meldung -
Sa, 21.04. 20:30 0.0 l/m2 in 1 Std. -
Sa, 21.04. 20:20 keine Meldung -
Sa, 21.04. 20:10 keine Meldung -
Sa, 21.04. 20:00 0.0 l/m2 in 1 Std. -
Sa, 21.04. 19:30 0.0 l/m2 in 1 Std. -
Sa, 21.04. 19:00 0.0 l/m2 in 1 Std. -
Sa, 21.04. 18:30 0.0 l/m2 in 1 Std. -
Sa, 21.04. 18:00 0.0 l/m2 in 1 Std. -
Ortszeit Stärke Spitze Richtung
km/h Bft. km/h Grad Sektor
Sa, 21.04. 20:00 7 2 14 10° N
Sa, 21.04. 14:00 4 1 14 300° NW
Sa, 21.04. 8:00 0 0 11 - -
Sa, 21.04. 2:00 0 0 7 - -
Fr, 20.04. 20:00 4 1 14 330° NW
Fr, 20.04. 14:00 6 1 13 230° SW
Fr, 20.04. 8:00 6 1 9 320° NW
Fr, 20.04. 2:00 4 1 11 30° NO
Ortszeit Stärke Spitze Richtung
km/h Bft. km/h Grad Sektor
Sa, 21.04. 21:00 4 1 11 360° N
Sa, 21.04. 20:50 4 1 - 360° N
Sa, 21.04. 20:40 4 1 - 20° N
Sa, 21.04. 20:30 7 2 11 40° NO
Sa, 21.04. 20:20 7 2 - 40° NO
Sa, 21.04. 20:10 4 1 - 360° N
Sa, 21.04. 20:00 7 2 14 10° N
Sa, 21.04. 19:30 9 2 13 360° N
Sa, 21.04. 19:00 7 2 14 30° NO
Sa, 21.04. 18:30 7 2 11 30° NO
Sa, 21.04. 18:00 7 2 11 40° NO
Ortszeit Untergrenze Bedeckung Gattung
total tief tief mittel hoch
Sa, 21.04. 20:00 10500 m 8/8 0/8 - - -
Sa, 21.04. 14:00 - 0/8 0/8 - - -
Sa, 21.04. 8:00 - 0/8 0/8 - - -
Sa, 21.04. 2:00 9000 m 8/8 0/8 - - -
Fr, 20.04. 20:00 10500 m 7/8 0/8 - - -
Fr, 20.04. 14:00 - 8/8 - - - -
Fr, 20.04. 8:00 3600 m 8/8 4/8 - - -
Fr, 20.04. 2:00 10500 m 2/8 0/8 - - -
Ortszeit Bedeckungsgrad in Achtel und Wolkenuntergrenze
Sa, 21.04. 21:00 8(10500m)
Sa, 21.04. 20:50 8(10500m)
Sa, 21.04. 20:40 8(10500m)
Sa, 21.04. 20:30 7(10500m) 8(12000m)
Sa, 21.04. 20:20 7(10500m) 8(12000m)
Sa, 21.04. 20:10 7(10500m) 8(12000m)
Sa, 21.04. 20:00 8(10500m) 8(12000m)
Sa, 21.04. 19:30 8(10500m)
Sa, 21.04. 19:00 8(10500m)
Sa, 21.04. 18:30 8(10500m)
Sa, 21.04. 18:00 8(10500m)
Ortszeit Luftdruck NN (hPa) Tendenz (hPa in 3 Std.)
Sa, 21.04. 20:00 1017 - 1,1
Sa, 21.04. 14:00 1019 - 1,4
Sa, 21.04. 8:00 1021 + 0,8
Sa, 21.04. 2:00 1021 - 0,3
Fr, 20.04. 20:00 1020 - 1,1
Fr, 20.04. 14:00 1023 - 1,0
Fr, 20.04. 8:00 1024 - 0,2
Fr, 20.04. 2:00 1025 - 0,6
Ortszeit Luftdruck NN (hPa) Tendenz (hPa in 3 Std.)
Sa, 21.04. 21:00 1017 - 0,3
Sa, 21.04. 20:50 1017 keine Meldung
Sa, 21.04. 20:40 1017 keine Meldung
Sa, 21.04. 20:30 1017 - 0,7
Sa, 21.04. 20:20 1017 keine Meldung
Sa, 21.04. 20:10 1017 keine Meldung
Sa, 21.04. 20:00 1017 - 1,1
Sa, 21.04. 19:30 1017 - 1,4
Sa, 21.04. 19:00 1017 - 1,4
Sa, 21.04. 18:30 1017 - 1,5
Sa, 21.04. 18:00 1017 - 1,7
Ortszeit Schneehöhe (cm)
Sa, 21.04. 20:00 0
Sa, 21.04. 14:00 0
Sa, 21.04. 8:00 0
Sa, 21.04. 2:00 0
Fr, 20.04. 20:00 0
Fr, 20.04. 14:00 0
Fr, 20.04. 8:00 0
Fr, 20.04. 2:00 0
Ortszeit Schneehöhe (cm)
Sa, 21.04. 21:00 0
Sa, 21.04. 20:50 0
Sa, 21.04. 20:40 0
Sa, 21.04. 20:30 0
Sa, 21.04. 20:20 0
Sa, 21.04. 20:10 0
Sa, 21.04. 20:00 0
Sa, 21.04. 19:30 0
Sa, 21.04. 19:00 0
Sa, 21.04. 18:30 0
Sa, 21.04. 18:00 0
Link zu dieser Seite / Seite empfehlen

Das Wetter in ...